createdAt,value
2022-08-03T00:02:19.755Z,17.87
2022-08-03T00:04:47.850Z,17.85
2022-08-03T00:07:16.806Z,17.83
2022-08-03T00:09:44.956Z,17.80
2022-08-03T00:12:13.482Z,17.77
2022-08-03T00:14:42.044Z,17.73
2022-08-03T00:17:10.127Z,17.69
2022-08-03T00:19:38.144Z,17.65
2022-08-03T00:22:06.236Z,17.62
2022-08-03T00:24:36.288Z,17.59
2022-08-03T00:27:04.419Z,17.56
2022-08-03T00:29:32.339Z,17.52
2022-08-03T00:32:00.752Z,17.48
2022-08-03T00:34:57.363Z,17.45
2022-08-03T00:37:17.148Z,17.41
2022-08-03T00:39:47.327Z,17.38
2022-08-03T00:42:15.732Z,17.35
2022-08-03T00:44:45.316Z,17.32
2022-08-03T00:47:13.536Z,17.28
2022-08-03T00:49:42.469Z,17.25
2022-08-03T00:52:13.788Z,17.21
2022-08-03T00:54:41.903Z,17.17
2022-08-03T00:57:11.276Z,17.14
2022-08-03T00:59:39.809Z,17.11
2022-08-03T01:02:08.398Z,17.07
2022-08-03T01:04:36.451Z,17.04
2022-08-03T01:07:20.658Z,17.01
2022-08-03T01:10:15.680Z,16.98
2022-08-03T01:12:58.054Z,16.96
2022-08-03T01:15:39.318Z,16.92
2022-08-03T01:18:46.431Z,16.89
2022-08-03T01:21:26.716Z,16.85
2022-08-03T01:24:07.219Z,16.82
2022-08-03T01:26:42.843Z,16.79
2022-08-03T01:29:38.763Z,16.74
2022-08-03T01:32:53.594Z,16.69
2022-08-03T01:35:06.678Z,16.65
2022-08-03T01:37:48.131Z,16.62
2022-08-03T01:40:17.895Z,16.59
2022-08-03T01:42:48.026Z,16.56
2022-08-03T01:45:18.847Z,16.53
2022-08-03T01:47:48.770Z,16.51
2022-08-03T01:50:23.104Z,16.48
2022-08-03T01:52:53.249Z,16.45
2022-08-03T01:55:23.923Z,16.42
2022-08-03T01:58:05.351Z,16.39
2022-08-03T02:00:39.782Z,16.36
2022-08-03T02:03:09.997Z,16.32
2022-08-03T02:05:40.247Z,16.29
2022-08-03T02:08:11.299Z,16.26
2022-08-03T02:10:41.876Z,16.23
2022-08-03T02:13:10.820Z,16.21
2022-08-03T02:15:39.668Z,16.19
2022-08-03T02:18:09.827Z,16.17
2022-08-03T02:20:40.243Z,16.14
2022-08-03T02:23:08.775Z,16.10
2022-08-03T02:25:46.221Z,16.07
2022-08-03T02:28:20.869Z,16.03
2022-08-03T02:30:55.095Z,16.00
2022-08-03T02:33:30.319Z,15.98
2022-08-03T02:36:01.357Z,15.97
2022-08-03T02:38:34.539Z,15.98
2022-08-03T02:41:07.558Z,15.97
2022-08-03T02:43:39.200Z,15.98
2022-08-03T02:46:33.940Z,15.98
2022-08-03T02:49:40.929Z,15.99
2022-08-03T02:51:54.957Z,15.99
2022-08-03T02:54:25.275Z,16.00
2022-08-03T02:56:57.144Z,16.01
2022-08-03T02:59:26.577Z,16.00
2022-08-03T03:01:55.804Z,16.00
2022-08-03T03:04:24.200Z,16.00
2022-08-03T03:07:01.771Z,16.00
2022-08-03T03:09:40.080Z,16.00
2022-08-03T03:12:12.948Z,15.99
2022-08-03T03:14:41.313Z,15.99
2022-08-03T03:17:15.169Z,15.99
2022-08-03T03:19:45.644Z,15.98
2022-08-03T03:22:15.621Z,15.99
2022-08-03T03:24:46.397Z,15.99
2022-08-03T03:27:16.502Z,15.99
2022-08-03T03:29:45.328Z,16.00
2022-08-03T03:32:14.073Z,16.01
2022-08-03T03:34:42.775Z,16.01
2022-08-03T03:37:12.600Z,16.00
2022-08-03T03:39:40.635Z,16.00
2022-08-03T03:42:08.919Z,16.01
2022-08-03T03:44:37.258Z,16.01
2022-08-03T03:47:05.500Z,16.02
2022-08-03T03:49:33.886Z,16.04
2022-08-03T03:52:02.162Z,16.05
2022-08-03T03:54:41.428Z,16.08
2022-08-03T03:57:13.101Z,16.10
2022-08-03T03:59:42.790Z,16.13
2022-08-03T04:02:12.401Z,16.17
2022-08-03T04:04:58.920Z,16.19
2022-08-03T04:07:55.759Z,16.22
2022-08-03T04:10:47.571Z,16.24
2022-08-03T04:13:17.787Z,16.26
2022-08-03T04:15:48.028Z,16.29
2022-08-03T04:18:17.297Z,16.31
2022-08-03T04:20:49.071Z,16.34
2022-08-03T04:23:21.274Z,16.36
2022-08-03T04:25:51.787Z,16.40
2022-08-03T04:28:30.543Z,16.44
2022-08-03T04:31:02.824Z,16.48
2022-08-03T04:33:34.945Z,16.53
2022-08-03T04:36:09.094Z,16.63
2022-08-03T04:38:40.941Z,16.84
2022-08-03T04:41:10.115Z,17.06
2022-08-03T04:43:40.927Z,17.33
2022-08-03T04:46:10.700Z,17.52
2022-08-03T04:48:43.464Z,17.60
2022-08-03T04:51:13.428Z,17.72
2022-08-03T04:53:42.898Z,17.80
2022-08-03T04:56:10.933Z,17.87
2022-08-03T04:58:39.581Z,17.95
2022-08-03T05:01:07.801Z,18.00
2022-08-03T05:03:37.216Z,18.05
2022-08-03T05:06:11.043Z,18.12
2022-08-03T05:08:46.847Z,18.20
2022-08-03T05:11:17.578Z,18.31
2022-08-03T05:13:46.705Z,18.45
2022-08-03T05:16:15.356Z,18.60
2022-08-03T05:18:43.966Z,18.75
2022-08-03T05:21:17.007Z,18.87
2022-08-03T05:23:45.039Z,18.97
2022-08-03T05:26:13.217Z,19.05
2022-08-03T05:28:51.053Z,19.14
2022-08-03T05:31:19.729Z,19.20
2022-08-03T05:33:49.174Z,19.25
2022-08-03T05:36:17.257Z,19.29
2022-08-03T05:38:45.467Z,19.38
2022-08-03T05:41:20.939Z,19.46
2022-08-03T05:43:55.619Z,19.62
2022-08-03T05:46:24.017Z,19.80
2022-08-03T05:48:52.359Z,20.02
2022-08-03T05:51:20.720Z,20.28
2022-08-03T05:53:48.890Z,20.59
2022-08-03T05:56:17.165Z,20.88
2022-08-03T05:58:47.500Z,21.10
2022-08-03T06:01:17.308Z,21.26
2022-08-03T06:03:46.539Z,21.44
2022-08-03T06:06:15.148Z,21.64
2022-08-03T06:08:45.613Z,21.87
2022-08-03T06:11:14.026Z,22.07
2022-08-03T06:13:42.434Z,22.23
2022-08-03T06:16:11.049Z,22.40
2022-08-03T06:18:40.655Z,22.59
2022-08-03T06:21:15.646Z,22.80
2022-08-03T06:23:52.835Z,23.03
2022-08-03T06:26:28.054Z,23.33
2022-08-03T06:28:56.829Z,23.67
2022-08-03T06:31:32.479Z,23.99
2022-08-03T06:34:32.275Z,24.32
2022-08-03T06:36:53.013Z,24.66
2022-08-03T06:39:23.433Z,24.95
2022-08-03T06:41:53.644Z,25.20
2022-08-03T06:44:21.716Z,25.37
2022-08-03T06:46:49.873Z,25.53
2022-08-03T06:49:17.951Z,25.71
2022-08-03T06:52:37.069Z,25.95
2022-08-03T06:54:34.354Z,26.27
2022-08-03T06:57:02.417Z,26.61
2022-08-03T07:00:08.445Z,26.88
2022-08-03T07:02:21.795Z,27.12
2022-08-03T07:04:50.301Z,27.35
2022-08-03T07:07:19.524Z,27.59
2022-08-03T07:09:55.718Z,27.82
2022-08-03T07:12:28.498Z,28.02
2022-08-03T07:15:00.868Z,28.23
2022-08-03T07:17:33.838Z,28.43
2022-08-03T07:20:05.724Z,28.55
2022-08-03T07:22:34.390Z,28.71
2022-08-03T07:25:03.392Z,28.90
2022-08-03T07:27:31.472Z,29.17
2022-08-03T07:29:59.669Z,29.45
2022-08-03T07:32:31.708Z,29.69
2022-08-03T07:35:01.137Z,29.82
2022-08-03T07:37:30.678Z,29.84
2022-08-03T07:40:02.467Z,29.95
2022-08-03T07:42:31.469Z,30.11
2022-08-03T07:45:00.352Z,30.27
2022-08-03T07:47:35.084Z,30.41
2022-08-03T07:50:06.571Z,30.46
2022-08-03T07:52:53.217Z,30.51
2022-08-03T07:55:24.168Z,30.62
2022-08-03T07:58:06.268Z,30.74
2022-08-03T08:00:34.472Z,30.84
2022-08-03T08:03:03.115Z,30.85
2022-08-03T08:05:31.999Z,30.77
2022-08-03T08:08:01.455Z,30.62
2022-08-03T08:10:29.986Z,30.66
2022-08-03T08:12:58.036Z,30.70
2022-08-03T08:15:26.263Z,30.72
2022-08-03T08:17:57.272Z,30.80
2022-08-03T08:20:34.272Z,31.04
2022-08-03T08:23:09.534Z,31.25
2022-08-03T08:25:50.192Z,31.34
2022-08-03T08:28:22.276Z,31.53
2022-08-03T08:31:10.038Z,31.79
2022-08-03T08:34:02.543Z,31.87
2022-08-03T08:36:26.219Z,32.03
2022-08-03T08:38:54.217Z,32.24
2022-08-03T08:41:22.235Z,32.44
2022-08-03T08:43:50.439Z,32.60
2022-08-03T08:46:23.747Z,32.73
2022-08-03T08:48:54.598Z,32.82
2022-08-03T08:51:43.854Z,32.93
2022-08-03T08:54:21.043Z,33.01
2022-08-03T08:56:52.484Z,33.09
2022-08-03T08:59:21.903Z,33.13
2022-08-03T09:01:49.853Z,33.15
2022-08-03T09:04:17.943Z,33.31
2022-08-03T09:07:04.404Z,33.47
2022-08-03T09:10:11.709Z,33.63
2022-08-03T09:12:40.847Z,33.81
2022-08-03T09:15:18.080Z,33.89
2022-08-03T09:17:50.669Z,34.06
2022-08-03T09:20:25.275Z,34.27
2022-08-03T09:22:57.761Z,34.25
2022-08-03T09:25:30.190Z,34.28
2022-08-03T09:28:11.166Z,34.40
2022-08-03T09:30:44.258Z,34.56
2022-08-03T09:33:16.427Z,34.69
2022-08-03T09:35:54.545Z,34.75
2022-08-03T09:38:26.345Z,34.71
2022-08-03T09:41:00.060Z,34.60
2022-08-03T09:43:29.432Z,34.64
2022-08-03T09:46:07.432Z,34.71
2022-08-03T09:48:36.949Z,34.71
2022-08-03T09:51:13.846Z,34.58
2022-08-03T09:53:59.167Z,34.64
2022-08-03T09:56:42.140Z,34.79
2022-08-03T09:59:11.989Z,34.74
2022-08-03T10:01:48.158Z,34.84
2022-08-03T10:04:19.657Z,34.96
2022-08-03T10:07:01.693Z,35.12
2022-08-03T10:09:32.289Z,35.28
2022-08-03T10:12:21.353Z,35.43
2022-08-03T10:14:49.675Z,35.57
2022-08-03T10:17:17.839Z,35.58
2022-08-03T10:19:47.455Z,35.49
2022-08-03T10:22:19.150Z,35.27
2022-08-03T10:25:00.334Z,35.20
2022-08-03T10:27:34.411Z,35.28
2022-08-03T10:30:06.460Z,35.40
2022-08-03T10:32:37.760Z,35.51
2022-08-03T10:35:21.047Z,35.58
2022-08-03T10:37:56.666Z,35.65
2022-08-03T10:40:48.181Z,35.73
2022-08-03T10:43:41.051Z,35.86
2022-08-03T10:46:09.069Z,36.02
2022-08-03T10:48:37.533Z,36.10
2022-08-03T10:51:06.973Z,36.22
2022-08-03T10:53:40.521Z,36.34
2022-08-03T10:56:52.765Z,36.38
2022-08-03T10:59:53.069Z,36.41
2022-08-03T11:02:21.079Z,36.31
2022-08-03T11:05:30.565Z,36.16
2022-08-03T11:08:21.494Z,35.96
2022-08-03T11:10:51.750Z,35.94
2022-08-03T11:13:21.549Z,35.84
2022-08-03T11:15:52.092Z,35.60
2022-08-03T11:18:21.011Z,35.21
2022-08-03T11:20:59.846Z,34.89
2022-08-03T11:24:05.493Z,34.88
2022-08-03T11:26:36.711Z,34.95
2022-08-03T11:29:29.097Z,35.01
2022-08-03T11:31:57.198Z,35.09
2022-08-03T11:34:26.822Z,35.07
2022-08-03T11:37:29.919Z,35.05
2022-08-03T11:40:02.381Z,34.93
2022-08-03T11:42:45.333Z,35.12
2022-08-03T11:45:13.715Z,35.26
2022-08-03T11:47:50.460Z,35.40
2022-08-03T11:50:24.084Z,35.49
2022-08-03T11:52:52.403Z,35.53
2022-08-03T11:55:22.283Z,35.56
2022-08-03T11:59:16.400Z,35.54
2022-08-03T12:00:38.517Z,35.61
2022-08-03T12:03:09.366Z,35.65
2022-08-03T12:05:51.151Z,35.48
2022-08-03T12:08:33.419Z,35.29
2022-08-03T12:11:09.653Z,35.05
2022-08-03T12:13:56.623Z,34.69
2022-08-03T12:16:29.199Z,34.34
2022-08-03T12:19:03.605Z,34.28
2022-08-03T12:21:32.818Z,34.33
2022-08-03T12:24:03.732Z,34.46
2022-08-03T12:26:45.469Z,34.63
2022-08-03T12:29:30.019Z,34.90
2022-08-03T12:31:58.177Z,35.11
2022-08-03T12:34:49.427Z,35.24
2022-08-03T12:37:23.693Z,35.25
2022-08-03T12:40:05.197Z,35.10
2022-08-03T12:42:39.535Z,34.87
2022-08-03T12:45:28.646Z,34.53
2022-08-03T12:47:59.991Z,34.25
2022-08-03T12:50:41.788Z,34.21
2022-08-03T12:53:10.781Z,34.20
2022-08-03T12:55:57.416Z,34.20
2022-08-03T12:58:36.254Z,34.35
2022-08-03T13:01:09.595Z,34.50
2022-08-03T13:03:43.209Z,34.60
2022-08-03T13:06:22.908Z,34.64
2022-08-03T13:09:03.762Z,34.57
2022-08-03T13:11:55.645Z,34.43
2022-08-03T13:14:23.629Z,34.38
2022-08-03T13:16:51.993Z,34.39
2022-08-03T13:19:20.052Z,34.49
2022-08-03T13:22:03.615Z,34.62
2022-08-03T13:24:33.458Z,34.81
2022-08-03T13:28:01.936Z,34.97
2022-08-03T13:29:53.062Z,35.00
2022-08-03T13:32:21.704Z,35.05
2022-08-03T13:34:50.041Z,35.18
2022-08-03T13:37:18.265Z,35.35
2022-08-03T13:39:57.457Z,35.41
2022-08-03T13:42:33.626Z,35.38
2022-08-03T13:45:02.980Z,35.37
2022-08-03T13:47:31.503Z,35.25
2022-08-03T13:50:04.215Z,35.33
2022-08-03T13:52:36.152Z,35.44
2022-08-03T13:55:06.008Z,35.61
2022-08-03T13:58:02.560Z,35.70
2022-08-03T14:00:29.650Z,35.53
2022-08-03T14:03:17.377Z,35.48
2022-08-03T14:05:45.437Z,35.48
2022-08-03T14:08:13.586Z,35.32
2022-08-03T14:10:44.062Z,35.03
2022-08-03T14:13:18.059Z,34.82
2022-08-03T14:15:49.946Z,34.79
2022-08-03T14:18:28.924Z,34.81
2022-08-03T14:21:06.617Z,34.80
2022-08-03T14:23:42.150Z,34.79
2022-08-03T14:26:14.561Z,34.74
2022-08-03T14:28:49.528Z,34.74
2022-08-03T14:32:10.158Z,34.83
2022-08-03T14:34:05.844Z,34.88
2022-08-03T14:36:33.920Z,34.88
2022-08-03T14:39:03.757Z,34.86
2022-08-03T14:41:31.753Z,34.88
2022-08-03T14:44:01.579Z,34.88
2022-08-03T14:46:31.894Z,34.80
2022-08-03T14:50:29.095Z,34.77
2022-08-03T14:51:51.354Z,34.71
2022-08-03T14:54:23.039Z,34.74
2022-08-03T14:56:51.556Z,34.82
2022-08-03T14:59:19.657Z,34.80
2022-08-03T15:02:05.331Z,34.74
2022-08-03T15:04:35.877Z,34.69
2022-08-03T15:07:04.286Z,34.67
2022-08-03T15:09:33.170Z,34.56
2022-08-03T15:12:01.366Z,34.44
2022-08-03T15:14:37.858Z,34.33
2022-08-03T15:17:06.846Z,34.22
2022-08-03T15:20:01.243Z,34.13
2022-08-03T15:22:24.988Z,33.95
2022-08-03T15:26:28.841Z,33.83
2022-08-03T15:28:03.399Z,33.73
2022-08-03T15:30:36.115Z,33.67
2022-08-03T15:33:05.994Z,33.63
2022-08-03T15:35:34.135Z,33.51
2022-08-03T15:38:06.070Z,33.39
2022-08-03T15:40:39.795Z,33.21
2022-08-03T15:43:08.381Z,33.11
2022-08-03T15:45:37.513Z,33.03
2022-08-03T15:48:06.373Z,32.96
2022-08-03T15:50:34.628Z,32.93
2022-08-03T15:53:02.942Z,32.89
2022-08-03T15:55:31.590Z,32.82
2022-08-03T15:59:10.513Z,32.72
2022-08-03T16:00:47.657Z,32.60
2022-08-03T16:03:15.682Z,32.50
2022-08-03T16:05:43.680Z,32.42
2022-08-03T16:08:13.808Z,32.35
2022-08-03T16:10:42.579Z,32.30
2022-08-03T16:13:10.631Z,32.29
2022-08-03T16:15:39.277Z,32.27
2022-08-03T16:18:07.683Z,32.17
2022-08-03T16:20:35.804Z,32.06
2022-08-03T16:23:09.188Z,31.90
2022-08-03T16:25:40.523Z,31.81
2022-08-03T16:28:13.755Z,31.75
2022-08-03T16:30:44.341Z,31.69
2022-08-03T16:33:16.954Z,31.61
2022-08-03T16:35:49.782Z,31.48
2022-08-03T16:38:19.440Z,31.31
2022-08-03T16:40:51.956Z,31.19
2022-08-03T16:43:22.589Z,31.07
2022-08-03T16:45:51.277Z,30.92
2022-08-03T16:48:19.409Z,30.75
2022-08-03T16:50:49.152Z,30.56
2022-08-03T16:53:51.632Z,30.38
2022-08-03T16:56:09.907Z,30.20
2022-08-03T16:58:42.524Z,30.05
2022-08-03T17:01:21.457Z,29.91
2022-08-03T17:04:02.478Z,29.78
2022-08-03T17:06:36.535Z,29.62
2022-08-03T17:09:11.800Z,29.44
2022-08-03T17:11:46.578Z,29.28
2022-08-03T17:14:22.905Z,29.12
2022-08-03T17:17:01.453Z,28.95
2022-08-03T17:19:39.661Z,28.78
2022-08-03T17:22:12.785Z,28.63
2022-08-03T17:24:53.745Z,28.47
2022-08-03T17:28:51.234Z,28.31
2022-08-03T17:30:18.861Z,28.14
2022-08-03T17:32:52.674Z,27.98
2022-08-03T17:35:36.689Z,27.82
2022-08-03T17:38:15.825Z,27.67
2022-08-03T17:40:52.204Z,27.51
2022-08-03T17:44:14.442Z,27.36
2022-08-03T17:46:10.819Z,27.19
2022-08-03T17:48:45.153Z,27.03
2022-08-03T17:51:17.243Z,26.89
2022-08-03T17:54:18.152Z,26.75
2022-08-03T17:58:02.818Z,26.58
2022-08-03T18:00:45.679Z,26.40
2022-08-03T18:03:23.184Z,26.26
2022-08-03T18:06:11.057Z,26.14
2022-08-03T18:08:55.209Z,26.00
2022-08-03T18:11:35.782Z,25.86
2022-08-03T18:14:17.386Z,25.72
2022-08-03T18:17:10.547Z,25.59
2022-08-03T18:20:03.212Z,25.45
2022-08-03T18:22:37.061Z,25.31
2022-08-03T18:25:10.732Z,25.18
2022-08-03T18:27:47.633Z,25.05
2022-08-03T18:30:17.681Z,24.93
2022-08-03T18:33:00.669Z,24.82
2022-08-03T18:35:53.907Z,24.66
2022-08-03T18:38:26.058Z,24.51
2022-08-03T18:40:56.245Z,24.37
2022-08-03T18:43:46.574Z,24.22
2022-08-03T18:46:41.006Z,24.07
2022-08-03T18:49:34.201Z,23.92
2022-08-03T18:52:12.295Z,23.78
2022-08-03T18:55:19.912Z,23.66
2022-08-03T18:58:08.036Z,23.53
2022-08-03T19:01:05.249Z,23.41
2022-08-03T19:04:18.219Z,23.28
2022-08-03T19:07:08.821Z,23.15
2022-08-03T19:09:39.848Z,23.01
2022-08-03T19:12:32.562Z,22.91
2022-08-03T19:15:13.489Z,22.80
2022-08-03T19:17:50.072Z,22.71
2022-08-03T19:20:27.471Z,22.62
2022-08-03T19:22:59.028Z,22.54
2022-08-03T19:25:34.886Z,22.48
2022-08-03T19:28:06.036Z,22.40
2022-08-03T19:30:38.528Z,22.33
2022-08-03T19:33:13.323Z,22.27
2022-08-03T19:35:51.447Z,22.20
2022-08-03T19:38:32.231Z,22.12
2022-08-03T19:41:03.695Z,22.06
2022-08-03T19:43:53.876Z,22.01
2022-08-03T19:46:31.032Z,21.94
2022-08-03T19:49:15.469Z,21.89
2022-08-03T19:52:00.654Z,21.83
2022-08-03T19:54:49.354Z,21.76
2022-08-03T19:57:24.666Z,21.69
2022-08-03T19:59:57.282Z,21.64
2022-08-03T20:02:27.986Z,21.61
2022-08-03T20:05:14.909Z,21.57
2022-08-03T20:07:48.540Z,21.53
2022-08-03T20:10:20.971Z,21.49
2022-08-03T20:12:49.921Z,21.45
2022-08-03T20:15:31.326Z,21.42
2022-08-03T20:18:01.974Z,21.39
2022-08-03T20:20:36.583Z,21.33
2022-08-03T20:23:11.509Z,21.28
2022-08-03T20:25:48.609Z,21.21
2022-08-03T20:28:50.241Z,21.16
2022-08-03T20:31:36.453Z,21.09
2022-08-03T20:34:06.598Z,21.03
2022-08-03T20:36:34.865Z,20.96
2022-08-03T20:39:07.534Z,20.90
2022-08-03T20:41:41.049Z,20.85
2022-08-03T20:44:09.175Z,20.79
2022-08-03T20:46:55.013Z,20.74
2022-08-03T20:49:27.288Z,20.67
2022-08-03T20:51:55.341Z,20.61
2022-08-03T20:54:29.118Z,20.56
2022-08-03T20:57:04.439Z,20.50
2022-08-03T20:59:50.352Z,20.44
2022-08-03T21:02:31.214Z,20.35
2022-08-03T21:05:03.767Z,20.28
2022-08-03T21:08:06.456Z,20.21
2022-08-03T21:10:40.648Z,20.15
2022-08-03T21:13:24.045Z,20.09
2022-08-03T21:16:04.732Z,20.03
2022-08-03T21:18:48.962Z,19.97
2022-08-03T21:21:19.531Z,19.91
2022-08-03T21:23:53.314Z,19.84
2022-08-03T21:26:24.957Z,19.79
2022-08-03T21:29:00.148Z,19.72
2022-08-03T21:31:30.498Z,19.66
2022-08-03T21:34:02.334Z,19.61
2022-08-03T21:36:33.219Z,19.55
2022-08-03T21:39:02.391Z,19.51
2022-08-03T21:41:32.165Z,19.46
2022-08-03T21:44:02.080Z,19.42
2022-08-03T21:46:35.414Z,19.38
2022-08-03T21:50:05.893Z,19.31
2022-08-03T21:52:02.988Z,19.24
2022-08-03T21:54:54.306Z,19.18
2022-08-03T21:57:26.534Z,19.09
2022-08-03T22:00:08.893Z,19.00
2022-08-03T22:02:54.481Z,18.92
2022-08-03T22:05:42.402Z,18.85
2022-08-03T22:08:14.917Z,18.78
2022-08-03T22:10:47.504Z,18.70
2022-08-03T22:13:44.120Z,18.63
2022-08-03T22:16:13.663Z,18.58
2022-08-03T22:18:44.356Z,18.51
2022-08-03T22:21:15.972Z,18.47
2022-08-03T22:23:59.525Z,18.44
2022-08-03T22:26:34.919Z,18.40
2022-08-03T22:29:18.629Z,18.37
2022-08-03T22:31:58.341Z,18.34
2022-08-03T22:34:29.851Z,18.32
2022-08-03T22:37:02.320Z,18.29
2022-08-03T22:39:31.281Z,18.25
2022-08-03T22:41:59.848Z,18.21
2022-08-03T22:44:28.609Z,18.18
2022-08-03T22:46:59.744Z,18.14
2022-08-03T22:49:29.501Z,18.09
2022-08-03T22:51:58.565Z,18.04
2022-08-03T22:54:26.728Z,17.99
2022-08-03T22:56:55.315Z,17.93
2022-08-03T22:59:41.437Z,17.86
2022-08-03T23:02:20.767Z,17.78
2022-08-03T23:04:57.646Z,17.71
2022-08-03T23:07:33.025Z,17.65
2022-08-03T23:10:03.847Z,17.61
2022-08-03T23:12:44.139Z,17.57
2022-08-03T23:15:13.587Z,17.52
2022-08-03T23:18:03.453Z,17.48
2022-08-03T23:20:32.175Z,17.43
2022-08-03T23:23:04.954Z,17.38
2022-08-03T23:25:34.463Z,17.34
2022-08-03T23:28:05.487Z,17.29
2022-08-03T23:30:41.522Z,17.23
2022-08-03T23:33:12.969Z,17.18
2022-08-03T23:36:20.178Z,17.13
2022-08-03T23:38:47.157Z,17.07
2022-08-03T23:41:17.618Z,17.04
2022-08-03T23:43:52.421Z,17.01
2022-08-03T23:46:23.752Z,16.97
2022-08-03T23:49:00.444Z,16.96
2022-08-03T23:51:54.370Z,16.92
2022-08-03T23:54:28.806Z,16.88
2022-08-03T23:57:04.857Z,16.84
